PAWG

Details ICAO PAWG (WRG)
Name WRANGELL
Region USA (Alaska)
Timezone America/Juneau (UTC-9.0)
Plans Departing 16
Arriving 27
Stats Elevation 44 ft / 13 m (AMSL)
Location 56.484324° -132.369832°
Runways 1
Magnetic Variation 18.809° E
Sunrise 2017-12-14 17:18:56 UTC / 2017-12-14 08:18:56 Local
Sunset 2017-12-15 00:12:31 UTC / 2017-12-14 15:12:31 Local
Advertisement - Login to hide

Runways

ID Width Length Bearing (true) Bearing (mag) Surface Threshold Offset Overrun Length
10 150 ft / 46 m 5,983 ft / 1,824 m 121.43° 102.62° Asphalt 0 ft / 0 m 0 ft / 0 m
28 150 ft / 46 m 5,983 ft / 1,824 m 301.45° 282.64° Asphalt 0 ft / 0 m 0 ft / 0 m

Approach Navaids

Runway Type Ident Frequency Range Bearing (true) Bearing (mag) Slope Elevation
10 Localiser IRGL 108.50 MHz 18 nm / 33 km 112.18° 93.37° - 40 ft / 12 m (AMSL)
10 DME IRGL 108.50 MHz 18 nm / 33 km - - - 58 ft / 18 m (AMSL)

Map

Weather


0- 5 10 15 20 25 30 35+ Temperature / ° C

Clouds and Precipitation
Forecast for 2017-12-15 00:00 UTC. Updated 2 hours ago

Ground ~20,000 ft ~40,000 ft Winds

METAR

PAWG 150056Z VRB05KT 10SM FEW002 SCT030 BKN045 07/04 A3005

TAF

TAF PAWG 142325Z 1500/1524 21008KT 6SM -SHRA OVC030 FM150500 17008KT 6SM -SHRA BR SCT015 OVC025 FM151900 14007KT P6SM -SHRA SCT015 OVC025 AMD LTD TO CLD VIS AND WIND 1506/1515

Frequencies

Recorded 128.50 MHz AWOS 3
Unicom 122.60 MHz CTAF
Warning: Do not use this data for real-world aviation or navigation. No guarantee of current accuracy is given.